ENBO

Bodø Airport

Bodø, Norway
METAR ENBO 230450Z 13012KT 9999 -SHRA FEW008 SCT012 BKN018 03/01 Q0988 BECMG 20015KT TEMPO SHRA BKN014CB
Observed Flight Rules
Oct-23 @ 04:50 UTC (28 minutes ago) Marginal Visual Flight Rules
Wind Visibility Clouds Conditions
130° at 12 knots 10,000+ meters
  • Few at 800' AGL
  • Scattered at 1,200' AGL
  • Broken at 1,800' AGL
  • Light Rain
Temperatures Readings
Current 3°C / 37°F
Dewpoint 1°C / 34°F
Humidity 87%
Altimeter 29.17" Hg
Pressure 988 hPa
Elevation 13
METAR ENBO 230450Z 13012KT 9999 -SHRA FEW008 SCT012 BKN018 03/01 Q0988 BECMG 20015KT TEMPO SHRA BKN014CB
Observed Flight Rules
Oct-23 @ 04:50 UTC
(28 minutes ago)
MVFR
Wind Visibility
130° at 12 knots 10,000+ meters
Clouds
  • Few at 800' AGL
  • Scattered at 1,200' AGL
  • Broken at 1,800' AGL
Conditions
  • Light Rain
Temperature Dewpoint
3°C / 37°F 1°C / 34°F
Humidity Altimeter Pressure
87% 29.17" Hg 988 hPa